Time;durP1;ratioP1;P1;durP2;ratioP2;P2;SDS_P1;SDS_P2;PMS_P1;PMS_P2;Temp;Humidity;BMP_temperature;BMP_pressure;BME280_temperature;BME280_humidity;BME280_pressure;Samples;Min_cycle;Max_cycle;Signal;HPM_P1;HPM_P2
2022/06/23 00:00:59;;;;;;;;;10.60;7.20;;;;;20.82;100.00;98868.91;4824316;29;45385;-59
2022/06/23 00:03:30;;;;;;;;;8.50;8.25;;;;;20.84;100.00;98871.47;4824936;29;45412;-60
2022/06/23 00:05:59;;;;;;;;;8.25;7.25;;;;;20.87;100.00;98865.84;4808132;29;45496;-59
2022/06/23 00:08:25;;;;;;;;;8.00;7.00;;;;;20.87;100.00;98850.63;4824630;29;45447;-59
2022/06/23 00:10:58;;;;;;;;;9.40;8.00;;;;;20.89;100.00;98855.84;4824923;29;45496;-59
2022/06/23 00:13:35;;;;;;;;;10.00;8.50;;;;;20.90;100.00;98849.53;4826337;29;45505;-59
2022/06/23 00:16:02;;;;;;;;;9.25;8.75;;;;;20.92;100.00;98850.22;4824453;29;45391;-60
2022/06/23 00:18:34;;;;;;;;;10.50;7.25;;;;;20.94;100.00;98850.97;4824674;29;45427;-60
2022/06/23 00:21:11;;;;;;;;;7.00;6.80;;;;;20.95;100.00;98844.59;4824646;29;45389;-59
2022/06/23 00:23:41;;;;;;;;;10.00;8.50;;;;;20.97;100.00;98845.31;4815338;29;45506;-59
2022/06/23 00:26:19;;;;;;;;;8.00;7.00;;;;;20.98;100.00;98843.47;4820751;29;45580;-59
2022/06/23 00:29:05;;;;;;;;;10.00;7.75;;;;;21.00;100.00;98847.72;4824347;29;45712;-59
2022/06/23 00:31:44;;;;;;;;;9.20;8.00;;;;;21.01;100.00;98853.94;4816744;29;45420;-59
2022/06/23 00:34:37;;;;;;;;;11.50;7.75;;;;;21.02;100.00;98861.84;4825325;29;45587;-59
2022/06/23 00:37:07;;;;;;;;;12.25;8.00;;;;;21.03;100.00;98858.19;4821889;29;45566;-59
2022/06/23 00:39:41;;;;;;;;;9.75;6.75;;;;;21.04;100.00;98857.19;4824771;29;45399;-59
2022/06/23 00:42:23;;;;;;;;;11.00;8.40;;;;;21.05;100.00;98858.91;4824348;29;45315;-59
2022/06/23 00:45:10;;;;;;;;;7.25;7.00;;;;;21.07;100.00;98858.78;4822565;29;45391;-59
2022/06/23 00:47:53;;;;;;;;;13.00;12.25;;;;;21.09;100.00;98846.09;4823713;29;45375;-59
2022/06/23 00:50:28;;;;;;;;;10.50;8.75;;;;;21.10;100.00;98842.41;4820084;29;45651;-59
2022/06/23 00:53:03;;;;;;;;;11.20;9.00;;;;;21.09;100.00;98843.41;4823006;29;45533;-59
2022/06/23 00:55:35;;;;;;;;;10.75;9.25;;;;;21.07;100.00;98843.53;4817033;29;45473;-59
2022/06/23 00:58:12;;;;;;;;;9.75;5.75;;;;;21.07;100.00;98832.81;4820162;29;45355;-59
2022/06/23 01:00:41;;;;;;;;;10.00;9.25;;;;;21.07;100.00;98837.31;4821149;29;45479;-58
2022/06/23 01:03:22;;;;;;;;;15.00;8.80;;;;;21.06;99.47;98833.78;4824263;29;45380;-58
2022/06/23 01:05:54;;;;;;;;;8.75;7.50;;;;;21.05;99.59;98834.78;4823918;29;45483;-59
2022/06/23 01:08:34;;;;;;;;;12.00;8.75;;;;;21.05;99.57;98833.94;4823126;29;45419;-58
2022/06/23 01:11:32;;;;;;;;;13.00;8.00;;;;;21.05;99.73;98834.78;4817669;29;45792;-58
2022/06/23 01:14:02;;;;;;;;;7.00;4.60;;;;;21.06;99.26;98836.47;4819439;29;45375;-58
2022/06/23 01:16:40;;;;;;;;;4.75;4.00;;;;;21.06;99.23;98838.31;4822042;29;45462;-58
2022/06/23 01:19:05;;;;;;;;;8.00;8.00;;;;;21.04;99.74;98840.28;4824727;29;45288;-58
2022/06/23 01:21:43;;;;;;;;;11.75;9.00;;;;;21.04;100.00;98841.13;4823512;29;45434;-58
2022/06/23 01:24:28;;;;;;;;;9.60;7.60;;;;;21.04;99.86;98837.59;4823499;29;45435;-58
2022/06/23 01:27:00;;;;;;;;;10.00;7.00;;;;;21.05;99.88;98836.59;4812627;29;45482;-59
2022/06/23 01:29:31;;;;;;;;;8.25;8.00;;;;;21.05;99.75;98842.81;4823980;29;45458;-59
2022/06/23 01:32:05;;;;;;;;;9.25;8.25;;;;;21.04;99.56;98832.22;4819961;29;46531;-59
2022/06/23 01:34:46;;;;;;;;;7.20;6.80;;;;;21.02;99.60;98828.81;4824199;29;45472;-59
2022/06/23 01:37:34;;;;;;;;;9.50;6.00;;;;;21.03;99.48;98831.38;4822033;29;45328;-59
2022/06/23 01:40:04;;;;;;;;;8.25;6.25;;;;;21.05;99.92;98837.47;4824044;29;45530;-59
2022/06/23 01:42:45;;;;;;;;;8.25;7.00;;;;;21.07;99.41;98831.97;4823291;29;45476;-59
2022/06/23 01:45:25;;;;;;;;;10.20;8.00;;;;;21.07;99.31;98824.78;4823348;29;45335;-59
2022/06/23 01:47:59;;;;;;;;;10.00;7.75;;;;;21.07;99.45;98838.19;4822562;29;45453;-59
2022/06/23 01:50:48;;;;;;;;;8.00;6.25;;;;;21.08;99.33;98830.97;4822989;29;45486;-60
2022/06/23 01:53:16;;;;;;;;;8.50;6.50;;;;;21.08;99.40;98839.88;4821313;29;46369;-60
2022/06/23 01:56:17;;;;;;;;;7.20;7.20;;;;;21.05;98.56;98842.81;4814825;29;45376;-60
2022/06/23 01:58:57;;;;;;;;;5.50;5.00;;;;;21.02;98.95;98834.19;4822658;29;45403;-59
2022/06/23 02:01:43;;;;;;;;;6.75;6.00;;;;;21.01;99.56;98827.97;4817115;29;45445;-60
2022/06/23 02:04:40;;;;;;;;;8.00;6.75;;;;;21.04;98.97;98829.53;4823445;29;46319;-59
2022/06/23 02:07:24;;;;;;;;;9.60;7.20;;;;;21.05;98.78;98840.13;4819943;29;45401;-60
2022/06/23 02:09:53;;;;;;;;;8.25;7.00;;;;;21.05;98.43;98837.47;4818806;29;45591;-60
2022/06/23 02:12:47;;;;;;;;;9.75;7.00;;;;;21.05;98.26;98823.19;4822471;29;45539;-60
2022/06/23 02:15:25;;;;;;;;;10.00;7.00;;;;;21.04;98.51;98841.13;4817800;29;46578;-60
2022/06/23 02:17:55;;;;;;;;;7.80;6.00;;;;;21.03;99.32;98842.09;4822783;29;45412;-60
2022/06/23 02:20:27;;;;;;;;;7.50;7.00;;;;;21.03;98.54;98843.94;4823719;29;45558;-60
2022/06/23 02:23:22;;;;;;;;;5.00;5.00;;;;;21.05;98.61;98847.31;4823298;29;45510;-60
2022/06/23 02:25:53;;;;;;;;;8.50;5.25;;;;;21.05;98.39;98841.97;4821124;29;45822;-60
2022/06/23 02:28:38;;;;;;;;;10.00;6.40;;;;;21.04;97.71;98842.94;4822476;29;45542;-60
2022/06/23 02:31:13;;;;;;;;;9.00;7.00;;;;;20.99;98.01;98846.03;4822978;29;45395;-60
2022/06/23 02:33:46;;;;;;;;;8.00;7.00;;;;;20.96;98.30;98850.78;4817536;29;45382;-60
2022/06/23 02:36:33;;;;;;;;;9.25;6.00;;;;;20.92;98.52;98852.06;4822485;29;45790;-60
2022/06/23 02:39:07;;;;;;;;;9.40;7.40;;;;;20.90;98.99;98852.19;4826330;29;45448;-60
2022/06/23 02:41:40;;;;;;;;;10.75;7.50;;;;;20.91;98.82;98845.84;4826360;29;45417;-60
2022/06/23 02:44:27;;;;;;;;;10.75;7.00;;;;;20.88;99.20;98836.25;4825885;29;45332;-60
2022/06/23 02:47:20;;;;;;;;;6.50;6.25;;;;;20.89;98.65;98842.47;4825399;29;46268;-60
2022/06/23 02:49:52;;;;;;;;;8.60;6.60;;;;;20.87;99.17;98839.91;4826033;29;45396;-60
2022/06/23 02:52:17;;;;;;;;;7.00;7.00;;;;;20.88;99.29;98841.59;4825779;29;45532;-60
2022/06/23 02:55:01;;;;;;;;;9.25;4.75;;;;;20.89;98.82;98845.13;4825017;29;45462;-60
2022/06/23 02:57:44;;;;;;;;;10.00;7.00;;;;;20.88;98.90;98844.28;4825243;29;45620;-60
2022/06/23 03:00:24;;;;;;;;;7.60;5.60;;;;;20.88;99.24;98846.13;4822335;29;45370;-60
2022/06/23 03:03:07;;;;;;;;;7.75;5.00;;;;;20.91;98.86;98843.19;4824699;29;45363;-60
2022/06/23 03:05:55;;;;;;;;;7.50;6.00;;;;;20.94;98.50;98850.09;4825780;29;45458;-60
2022/06/23 03:08:27;;;;;;;;;8.75;6.00;;;;;20.94;97.58;98850.97;4824803;29;45563;-60
2022/06/23 03:11:02;;;;;;;;;7.80;5.40;;;;;20.94;98.16;98850.97;4825425;29;45464;-60
2022/06/23 03:13:42;;;;;;;;;5.50;5.50;;;;;20.95;98.04;98854.47;4825910;29;45538;-60
2022/06/23 03:16:35;;;;;;;;;7.25;6.25;;;;;20.96;98.13;98850.78;4821904;29;45540;-60
2022/06/23 03:19:14;;;;;;;;;11.50;8.75;;;;;20.97;97.48;98858.69;4821375;29;46107;-60
2022/06/23 03:21:45;;;;;;;;;6.80;6.60;;;;;21.02;98.24;98855.63;4825181;29;45502;-55
2022/06/23 03:24:11;;;;;;;;;10.00;9.25;;;;;21.11;97.86;98854.84;4825283;29;45427;-55
2022/06/23 03:26:42;;;;;;;;;16.25;9.75;;;;;21.19;97.23;98857.69;4824925;29;45335;-54
2022/06/23 03:29:24;;;;;;;;;9.75;9.25;;;;;21.24;96.46;98859.03;4825246;29;46409;-55
2022/06/23 03:31:55;;;;;;;;;8.20;7.00;;;;;21.30;96.28;98856.75;4824612;29;45473;-55
2022/06/23 03:34:36;;;;;;;;;6.00;5.60;;;;;21.34;95.69;98860.88;4825604;29;45469;-55
2022/06/23 03:37:24;;;;;;;;;7.25;7.00;;;;;21.35;96.09;98858.06;4820684;29;45570;-56
2022/06/23 03:42:52;;;;;;;;;7.40;6.60;;;;;21.35;95.40;98862.56;4825022;29;45419;-55
2022/06/23 03:45:26;;;;;;;;;11.25;8.00;;;;;21.34;95.40;98856.38;4824367;29;45437;-55
2022/06/23 03:48:16;;;;;;;;;14.25;8.00;;;;;21.31;94.89;98853.09;4824169;29;45491;-55
2022/06/23 03:50:47;;;;;;;;;9.00;7.00;;;;;21.29;95.46;98861.28;4822050;29;45505;-56
2022/06/23 03:53:25;;;;;;;;;8.40;6.40;;;;;21.30;95.53;98860.28;4808651;29;45479;-54
2022/06/23 03:55:59;;;;;;;;;13.00;10.00;;;;;21.32;95.07;98865.53;4814580;29;45458;-54
2022/06/23 03:58:27;;;;;;;;;10.50;8.75;;;;;21.32;94.74;98863.69;4823360;29;45363;-55
2022/06/23 04:01:15;;;;;;;;;9.50;7.00;;;;;21.32;94.17;98873.56;4824644;29;45780;-55
2022/06/23 04:03:57;;;;;;;;;11.00;7.00;;;;;21.30;94.04;98873.69;4824277;29;45512;-55
2022/06/23 04:06:31;;;;;;;;;7.50;7.25;;;;;21.31;94.17;98870.03;4824604;29;45565;-56
2022/06/23 04:09:00;;;;;;;;;8.00;7.50;;;;;21.32;94.12;98876.25;4824654;29;45321;-54
2022/06/23 04:11:43;;;;;;;;;19.50;9.00;;;;;21.33;94.24;98869.91;4823564;29;45462;-56
2022/06/23 04:14:30;;;;;;;;;12.40;9.20;;;;;21.32;94.38;98870.88;4824834;29;45434;-54
2022/06/23 04:17:23;;;;;;;;;11.00;8.00;;;;;21.32;94.07;98879.78;4811944;29;45615;-55
2022/06/23 04:20:01;;;;;;;;;12.25;9.25;;;;;21.31;94.37;98871.88;4806227;29;45411;-53
2022/06/23 04:22:36;;;;;;;;;9.00;8.75;;;;;21.32;94.73;98870.88;4824188;29;45766;-55
2022/06/23 04:25:04;;;;;;;;;11.20;8.00;;;;;21.32;94.23;98879.78;4809018;29;45386;-55
2022/06/23 04:27:37;;;;;;;;;11.25;9.00;;;;;21.35;94.06;98873.31;4824259;29;45482;-55
2022/06/23 04:30:05;;;;;;;;;9.75;6.00;;;;;21.34;93.89;98877.81;4824958;29;45447;-55
2022/06/23 04:32:34;;;;;;;;;13.00;7.50;;;;;21.36;94.63;98873.16;4824070;29;45415;-55
2022/06/23 04:35:15;;;;;;;;;5.80;5.80;;;;;21.39;94.29;98872.91;4824634;29;45496;-55
2022/06/23 04:37:58;;;;;;;;;9.75;5.00;;;;;21.41;93.96;98878.13;4824022;29;45314;-53
2022/06/23 04:40:26;;;;;;;;;12.75;8.25;;;;;21.42;93.86;98878.00;4818022;29;45383;-55
2022/06/23 04:43:18;;;;;;;;;11.50;7.75;;;;;21.42;93.74;98874.47;4823691;29;45479;-55
2022/06/23 04:46:04;;;;;;;;;11.00;9.40;;;;;21.43;93.61;98870.81;4823442;29;45675;-53
2022/06/23 04:48:39;;;;;;;;;8.25;7.00;;;;;21.45;93.25;98872.34;4823650;29;45396;-54
2022/06/23 04:51:08;;;;;;;;;8.50;8.00;;;;;21.45;93.00;98864.28;4823100;29;45472;-54
2022/06/23 04:53:51;;;;;;;;;7.00;6.50;;;;;21.46;92.90;98852.59;4821681;29;46502;-54
2022/06/23 04:56:20;;;;;;;;;7.20;6.40;;;;;21.47;92.74;98861.47;4804875;29;45473;-54
2022/06/23 04:58:59;;;;;;;;;9.40;6.20;;;;;21.51;92.71;98866.44;4823344;29;45404;-54
2022/06/23 05:01:36;;;;;;;;;8.25;5.75;;;;;21.55;93.07;98867.88;4817542;29;45799;-54
2022/06/23 05:04:04;;;;;;;;;8.80;8.00;;;;;21.59;92.53;98861.25;4820624;29;45637;-55
2022/06/23 05:06:40;;;;;;;;;8.00;7.60;;;;;21.66;92.55;98858.84;4823564;29;45404;-55
2022/06/23 05:09:28;;;;;;;;;7.75;7.00;;;;;21.71;92.38;98855.78;4822609;29;45433;-54
2022/06/23 05:11:58;;;;;;;;;7.75;6.25;;;;;21.74;92.62;98867.09;4809767;29;45590;-54
2022/06/23 05:14:34;;;;;;;;;12.00;7.75;;;;;21.79;92.36;98863.97;4822987;29;46286;-56
2022/06/23 05:17:13;;;;;;;;;7.20;6.40;;;;;21.84;91.99;98864.41;4822651;29;45530;-55
2022/06/23 05:19:41;;;;;;;;;12.50;8.00;;;;;21.87;92.28;98867.66;4821420;29;45371;-55
2022/06/23 05:22:37;;;;;;;;;9.50;7.00;;;;;21.95;91.55;98866.97;4823609;29;45569;-55
2022/06/23 05:25:41;;;;;;;;;12.25;8.50;;;;;22.03;91.94;98863.63;4818367;29;45381;-55
2022/06/23 05:28:17;;;;;;;;;7.80;6.40;;;;;22.07;91.20;98870.41;4819694;29;45450;-54
2022/06/23 05:30:50;;;;;;;;;7.25;6.00;;;;;22.11;90.36;98853.03;4823174;29;45461;-55
2022/06/23 05:33:22;;;;;;;;;9.50;6.50;;;;;22.15;90.89;98855.28;4823189;29;45478;-56
2022/06/23 05:35:59;;;;;;;;;7.25;6.75;;;;;22.20;90.66;98861.09;4820513;29;46093;-54
2022/06/23 05:38:31;;;;;;;;;10.00;8.50;;;;;22.27;90.12;98856.84;4804281;29;45430;-56
2022/06/23 05:41:02;;;;;;;;;7.50;6.00;;;;;22.33;89.03;98857.25;4822592;29;45499;-55
2022/06/23 05:43:30;;;;;;;;;11.50;7.75;;;;;22.37;87.87;98864.06;4822957;29;45337;-54
2022/06/23 05:46:01;;;;;;;;;8.00;7.00;;;;;22.41;88.45;98854.72;4819288;29;48598;-55
2022/06/23 05:48:39;;;;;;;;;8.20;6.60;;;;;22.47;87.50;98863.03;4826095;29;45411;-57
2022/06/23 05:51:14;;;;;;;;;8.50;8.00;;;;;22.53;87.68;98862.47;4813067;29;45549;-56
2022/06/23 05:54:02;;;;;;;;;9.00;7.25;;;;;22.63;87.50;98862.47;4817827;29;45459;-55
2022/06/23 05:56:38;;;;;;;;;9.00;8.00;;;;;22.70;86.70;98863.59;4815350;29;45513;-54
2022/06/23 05:59:15;;;;;;;;;10.40;10.20;;;;;22.77;86.17;98869.28;4812986;29;45612;-53
2022/06/23 06:01:55;;;;;;;;;10.00;8.00;;;;;22.82;86.16;98867.84;4817386;29;45446;-52
2022/06/23 06:04:29;;;;;;;;;10.75;9.75;;;;;22.89;85.86;98863.59;4821264;29;45502;-55
2022/06/23 06:06:55;;;;;;;;;12.75;10.50;;;;;22.98;85.31;98862.69;4820506;29;45614;-54
2022/06/23 06:09:35;;;;;;;;;6.50;6.00;;;;;23.05;84.93;98868.34;4825844;29;45478;-55
2022/06/23 06:12:05;;;;;;;;;12.25;8.75;;;;;23.11;84.72;98873.16;4820080;29;45507;-55
2022/06/23 06:14:38;;;;;;;;;10.50;7.00;;;;;23.16;83.87;98873.53;4821398;29;45403;-55
2022/06/23 06:17:05;;;;;;;;;8.75;8.75;;;;;23.22;83.52;98874.81;4804165;29;45527;-50
2022/06/23 06:19:33;;;;;;;;;6.80;6.80;;;;;23.27;83.91;98869.84;4825184;29;45403;-48
2022/06/23 06:22:12;;;;;;;;;10.25;9.00;;;;;23.30;82.73;98870.38;4821013;29;45509;-51
2022/06/23 06:24:44;;;;;;;;;12.50;8.75;;;;;23.38;83.44;98872.31;4829533;29;45418;-61
2022/06/23 06:27:11;;;;;;;;;9.60;7.60;;;;;23.48;82.48;98872.28;4820614;29;46177;-60
2022/06/23 06:29:40;;;;;;;;;9.80;6.40;;;;;23.55;82.20;98870.72;4820603;29;45399;-59
2022/06/23 06:32:27;;;;;;;;;9.40;8.00;;;;;23.61;81.45;98872.81;4802594;29;45479;-59
2022/06/23 06:35:02;;;;;;;;;9.50;8.50;;;;;23.67;81.51;98869.50;4822501;29;45422;-59
2022/06/23 06:37:31;;;;;;;;;9.25;8.25;;;;;23.68;80.46;98868.50;4802819;29;46684;-59
2022/06/23 06:40:00;;;;;;;;;9.20;8.40;;;;;23.71;80.99;98867.38;4821558;29;45514;-59
2022/06/23 06:42:30;;;;;;;;;10.25;7.50;;;;;23.70;80.28;98861.13;4820544;29;45475;-59
2022/06/23 06:44:59;;;;;;;;;10.75;8.00;;;;;23.75;79.98;98855.31;4821577;29;45362;-59
2022/06/23 06:47:31;;;;;;;;;11.25;10.00;;;;;23.76;79.98;98860.53;4820583;29;46905;-60
2022/06/23 06:50:02;;;;;;;;;13.20;8.00;;;;;23.82;79.92;98862.63;4821159;29;45419;-59
2022/06/23 06:52:29;;;;;;;;;11.50;9.00;;;;;23.84;78.45;98854.38;4821180;29;45412;-59
2022/06/23 06:55:02;;;;;;;;;10.00;7.75;;;;;23.86;79.40;98849.69;4802291;29;45441;-59
2022/06/23 06:57:41;;;;;;;;;9.25;8.00;;;;;23.94;78.94;98844.41;4819873;29;45976;-59
2022/06/23 07:00:24;;;;;;;;;11.20;10.40;;;;;23.99;77.56;98840.25;4775397;29;1296966;-59
2022/06/23 07:02:57;;;;;;;;;10.75;8.00;;;;;24.03;78.22;98846.19;4802055;29;45400;-59
2022/06/23 07:05:28;;;;;;;;;9.50;7.75;;;;;24.06;78.03;98837.78;4821328;29;45404;-59
2022/06/23 07:08:04;;;;;;;;;11.50;9.25;;;;;24.14;78.05;98837.84;4821541;29;46114;-59
2022/06/23 07:10:38;;;;;;;;;9.80;9.20;;;;;24.21;77.51;98833.56;4820596;29;45433;-60
2022/06/23 07:13:42;;;;;;;;;6.75;6.75;;;;;24.28;77.23;98823.91;4817544;29;45715;-59
2022/06/23 07:16:28;;;;;;;;;11.00;7.00;;;;;24.33;76.74;98828.81;4803862;29;45536;-59
2022/06/23 07:18:56;;;;;;;;;7.80;7.80;;;;;24.41;76.35;98820.81;4816267;29;45582;-59
2022/06/23 07:21:27;;;;;;;;;0.00;0.00;;;;;24.47;76.65;98813.91;4821660;29;45420;-59
2022/06/23 07:24:13;;;;;;;;;9.00;8.75;;;;;24.51;76.29;98815.31;4823586;29;45347;-59
2022/06/23 07:27:02;;;;;;;;;9.75;7.75;;;;;24.51;75.80;98799.97;4806481;29;45760;-59
2022/06/23 07:29:48;;;;;;;;;10.80;8.20;;;;;24.49;75.88;98801.13;4825197;29;47134;-59
2022/06/23 07:32:28;;;;;;;;;9.80;8.00;;;;;24.46;75.14;98786.16;4823656;29;45433;-59
2022/06/23 07:35:05;;;;;;;;;8.80;7.80;;;;;24.48;75.06;98788.66;4822843;29;45568;-59
2022/06/23 07:37:44;;;;;;;;;10.25;7.50;;;;;24.56;74.70;98786.03;4808372;29;45383;-59
2022/06/23 07:40:13;;;;;;;;;8.40;7.40;;;;;24.61;74.83;98786.41;4824285;29;45503;-59
2022/06/23 07:42:52;;;;;;;;;10.40;8.00;;;;;24.62;73.61;98782.72;4823971;29;45486;-59
2022/06/23 07:45:42;;;;;;;;;9.80;7.60;;;;;24.61;73.36;98781.88;4824691;29;45435;-59
2022/06/23 07:48:07;;;;;;;;;8.75;8.50;;;;;24.59;73.56;98778.47;4799709;29;45779;-59
2022/06/23 07:50:33;;;;;;;;;11.00;8.00;;;;;24.56;73.74;98773.41;4824488;29;46127;-59
2022/06/23 07:52:59;;;;;;;;;10.75;9.50;;;;;24.54;73.99;98770.03;4824935;29;45361;-59
2022/06/23 07:55:31;;;;;;;;;11.00;7.80;;;;;24.53;73.95;98773.72;4824218;29;45501;-59
2022/06/23 07:57:57;;;;;;;;;9.00;9.00;;;;;24.53;73.94;98762.94;4802286;29;45579;-58
2022/06/23 08:00:26;;;;;;;;;9.40;6.80;;;;;24.58;73.74;98763.31;4823597;29;45544;-60
2022/06/23 08:03:00;;;;;;;;;11.40;9.40;;;;;24.61;73.41;98765.69;4825125;29;45458;-61
2022/06/23 08:05:39;;;;;;;;;10.80;6.40;;;;;24.63;73.04;98765.53;4807863;29;45430;-61
2022/06/23 08:08:10;;;;;;;;;10.50;8.50;;;;;24.65;72.95;98741.94;4821054;29;45331;-61
2022/06/23 08:10:36;;;;;;;;;13.50;8.25;;;;;24.65;72.76;98741.94;4824567;29;45712;-61
2022/06/23 08:13:14;;;;;;;;;9.25;9.00;;;;;24.65;72.24;98745.47;4824534;29;45473;-61
2022/06/23 08:18:41;;;;;;;;;12.25;9.25;;;;;24.78;72.48;98741.53;4823888;29;45491;-58
2022/06/23 08:21:21;;;;;;;;;10.75;9.00;;;;;24.82;71.98;98737.47;4819887;29;47682;-58
2022/06/23 08:23:52;;;;;;;;;16.00;14.00;;;;;24.85;72.36;98731.78;4817857;29;46334;-58
2022/06/23 08:26:21;;;;;;;;;10.25;8.25;;;;;24.88;72.16;98736.84;4824438;29;45461;-58
2022/06/23 08:28:49;;;;;;;;;9.25;8.00;;;;;24.92;72.75;98732.81;4824352;29;45564;-61
2022/06/23 08:31:14;;;;;;;;;11.80;7.80;;;;;24.96;72.26;98727.00;4823760;29;47181;-61
2022/06/23 08:33:40;;;;;;;;;12.75;11.00;;;;;25.03;72.09;98724.47;4824680;29;45613;-61
2022/06/23 08:36:14;;;;;;;;;9.75;7.50;;;;;25.07;71.49;98717.75;4823632;29;45488;-61
2022/06/23 08:38:46;;;;;;;;;9.50;7.00;;;;;25.10;71.18;98713.88;4817668;29;45403;-61
2022/06/23 08:41:38;;;;;;;;;6.60;6.40;;;;;25.15;71.43;98708.81;4821555;29;45441;-61
2022/06/23 08:44:22;;;;;;;;;12.20;8.20;;;;;25.20;71.03;98699.25;4821690;29;45429;-61
2022/06/23 08:47:16;;;;;;;;;8.00;7.20;;;;;25.28;71.35;98693.03;4818522;29;45460;-61
2022/06/23 08:49:47;;;;;;;;;9.50;9.50;;;;;25.35;70.70;98689.50;4804652;29;45999;-61
2022/06/23 08:52:31;;;;;;;;;11.75;7.25;;;;;25.42;70.82;98686.13;4822169;29;45744;-60
2022/06/23 08:55:19;;;;;;;;;11.20;9.00;;;;;25.45;70.69;98675.00;4817915;29;45499;-61
2022/06/23 08:57:53;;;;;;;;;8.60;8.60;;;;;25.46;70.78;98672.16;4822566;29;45623;-61
2022/06/23 09:00:31;;;;;;;;;8.25;6.50;;;;;25.48;70.90;98675.50;4822908;29;45408;-61
2022/06/23 09:03:02;;;;;;;;;8.80;7.40;;;;;25.51;70.19;98677.88;4822802;29;45496;-61
2022/06/23 09:06:00;;;;;;;;;13.40;9.00;;;;;25.57;70.01;98676.38;4823805;29;45329;-61
2022/06/23 09:09:03;;;;;;;;;9.20;8.60;;;;;25.60;70.11;98681.44;4822643;29;45455;-61
2022/06/23 09:11:40;;;;;;;;;9.25;8.75;;;;;25.63;70.23;98670.34;4819855;29;45505;-60
2022/06/23 09:14:30;;;;;;;;;7.40;7.40;;;;;25.65;69.32;98671.00;4824234;29;45441;-61
2022/06/23 09:17:32;;;;;;;;;9.20;8.20;;;;;25.70;69.52;98665.94;4823481;29;45360;-61
2022/06/23 09:20:18;;;;;;;;;10.20;8.40;;;;;25.73;69.16;98658.34;4823235;29;45487;-61
2022/06/23 09:23:03;;;;;;;;;10.50;9.25;;;;;25.81;69.36;98662.06;4829712;29;45465;-61
2022/06/23 09:25:48;;;;;;;;;16.00;10.75;;;;;25.88;69.22;98660.38;4823045;29;45448;-61
2022/06/23 09:28:15;;;;;;;;;10.00;9.00;;;;;25.93;68.63;98653.47;4822133;29;45398;-61
2022/06/23 09:31:10;;;;;;;;;12.40;8.40;;;;;26.00;68.73;98665.25;4828163;29;45491;-61
2022/06/23 09:33:57;;;;;;;;;8.25;6.75;;;;;26.09;68.89;98660.69;4814551;29;45324;-61
2022/06/23 09:36:40;;;;;;;;;10.60;9.80;;;;;26.12;67.95;98656.81;4823068;29;46450;-61
2022/06/23 09:39:44;;;;;;;;;9.00;8.60;;;;;26.17;66.86;98657.97;4823618;29;45417;-61
2022/06/23 09:42:32;;;;;;;;;6.60;5.80;;;;;26.19;67.54;98661.34;4819682;29;45453;-61
2022/06/23 09:45:12;;;;;;;;;16.25;9.00;;;;;26.20;67.04;98662.19;4818247;29;45539;-61
2022/06/23 09:48:05;;;;;;;;;12.60;9.60;;;;;26.19;65.65;98657.78;4823087;29;45889;-62
2022/06/23 09:50:49;;;;;;;;;10.20;9.20;;;;;26.15;65.90;98661.84;4822945;29;45531;-61
2022/06/23 09:53:28;;;;;;;;;13.60;9.60;;;;;26.17;66.25;98652.56;4823623;29;45414;-61
2022/06/23 09:56:15;;;;;;;;;12.50;9.75;;;;;26.15;65.24;98653.75;4812929;29;45569;-62
2022/06/23 09:59:11;;;;;;;;;8.20;7.60;;;;;26.08;65.60;98643.63;4803866;29;48110;-61
2022/06/23 10:01:44;;;;;;;;;9.80;8.80;;;;;26.13;65.88;98647.69;4822504;29;45390;-61
2022/06/23 10:04:16;;;;;;;;;10.20;7.40;;;;;26.20;65.85;98641.41;4823423;29;45638;-60
2022/06/23 10:07:25;;;;;;;;;14.25;8.00;;;;;26.37;63.61;98640.38;4822918;29;45487;-60
2022/06/23 10:10:12;;;;;;;;;11.40;8.00;;;;;26.48;63.96;98633.75;4766146;29;45569;-61
2022/06/23 10:13:00;;;;;;;;;6.40;5.80;;;;;26.61;64.02;98627.81;4765887;29;45434;-60
2022/06/23 10:15:39;;;;;;;;;7.80;4.20;;;;;26.66;63.20;98623.53;4811026;29;45906;-60
2022/06/23 10:18:16;;;;;;;;;12.60;9.80;;;;;26.76;60.62;98621.50;4823093;29;45531;-61
2022/06/23 10:21:05;;;;;;;;;9.00;6.80;;;;;26.80;59.46;98608.47;4822914;29;45499;-61
2022/06/23 10:24:08;;;;;;;;;8.00;6.60;;;;;26.83;59.94;98609.94;4816850;29;45374;-61
2022/06/23 10:26:33;;;;;;;;;9.60;7.80;;;;;26.88;59.84;98616.53;4822605;29;45378;-61
2022/06/23 10:29:24;;;;;;;;;11.75;8.75;;;;;26.94;59.25;98605.03;4822265;29;45414;-61
2022/06/23 10:32:34;;;;;;;;;11.80;8.60;;;;;27.05;59.10;98601.06;4822511;29;45419;-60
2022/06/23 10:35:10;;;;;;;;;17.00;11.00;;;;;27.19;58.61;98596.75;4787319;29;45541;-61
2022/06/23 10:37:57;;;;;;;;;11.80;10.20;;;;;27.30;58.83;98604.47;4818065;29;45415;-60
2022/06/23 10:40:25;;;;;;;;;10.00;9.20;;;;;27.41;57.58;98598.63;4817516;29;45455;-60
2022/06/23 10:43:22;;;;;;;;;13.40;8.60;;;;;27.43;57.02;98597.41;4820578;29;46630;-60
2022/06/23 10:45:57;;;;;;;;;11.80;7.80;;;;;27.48;57.34;98591.47;4821945;29;45567;-61
2022/06/23 10:48:37;;;;;;;;;14.20;10.00;;;;;27.55;54.63;98591.56;4805765;29;45367;-61
2022/06/23 10:51:28;;;;;;;;;16.00;9.25;;;;;27.59;55.34;98591.06;4819221;29;45417;-60
2022/06/23 10:54:21;;;;;;;;;10.40;8.00;;;;;27.64;55.56;98580.53;4821639;29;46510;-61
2022/06/23 10:57:41;;;;;;;;;12.40;9.00;;;;;27.72;55.36;98577.72;4821966;29;45271;-60
2022/06/23 11:00:19;;;;;;;;;11.80;9.00;;;;;27.79;54.21;98558.88;4769002;29;45450;-60
2022/06/23 11:02:53;;;;;;;;;11.25;10.25;;;;;27.81;54.64;98548.72;4820298;29;45487;-61
2022/06/23 11:05:25;;;;;;;;;12.60;9.40;;;;;27.91;53.91;98554.69;4824983;29;45527;-60
2022/06/23 11:08:12;;;;;;;;;11.20;7.80;;;;;28.00;53.27;98555.44;4825809;29;45511;-60
2022/06/23 11:11:22;;;;;;;;;8.40;6.00;;;;;28.10;52.06;98540.59;4825773;29;45504;-61
2022/06/23 11:14:06;;;;;;;;;10.50;9.75;;;;;28.20;50.54;98526.78;4813715;29;45353;-61
2022/06/23 11:16:46;;;;;;;;;6.80;5.20;;;;;28.28;50.21;98526.69;4825142;29;46690;-61
2022/06/23 11:19:30;;;;;;;;;10.00;8.00;;;;;28.36;47.10;98515.72;4825611;29;45495;-60
2022/06/23 11:22:18;;;;;;;;;10.20;5.20;;;;;28.48;46.32;98513.38;4825507;29;45518;-60
2022/06/23 11:25:07;;;;;;;;;5.00;5.00;;;;;28.57;47.68;98503.25;4824184;29;45308;-61
2022/06/23 11:27:43;;;;;;;;;7.00;5.00;;;;;28.69;46.34;98507.97;4796510;29;45638;-60
2022/06/23 11:30:18;;;;;;;;;5.60;4.40;;;;;28.84;44.87;98505.25;4825924;29;45223;-61
2022/06/23 11:32:59;;;;;;;;;6.00;5.60;;;;;28.96;47.21;98495.56;4824338;29;45665;-61
2022/06/23 11:35:27;;;;;;;;;10.00;7.20;;;;;29.03;44.84;98485.59;4825276;29;45559;-60
2022/06/23 11:38:11;;;;;;;;;8.60;7.00;;;;;29.07;44.24;98472.50;4825226;29;46553;-60
2022/06/23 11:40:51;;;;;;;;;8.80;5.60;;;;;29.16;44.18;98468.59;4829189;29;45383;-60
2022/06/23 11:43:30;;;;;;;;;5.60;5.60;;;;;29.32;45.30;98462.91;4822177;29;45359;-61
2022/06/23 11:46:34;;;;;;;;;9.25;7.00;;;;;29.52;44.77;98466.63;4824335;29;45551;-60
2022/06/23 11:49:33;;;;;;;;;4.40;2.80;;;;;29.74;44.61;98459.25;4822560;29;45497;-61
2022/06/23 11:51:58;;;;;;;;;9.80;5.80;;;;;29.90;45.65;98466.25;4823000;29;45560;-61
2022/06/23 11:54:45;;;;;;;;;7.75;5.50;;;;;30.04;42.90;98464.47;4824817;29;45444;-58
2022/06/23 11:57:29;;;;;;;;;6.00;6.00;;;;;30.13;42.44;98455.09;4822516;29;45408;-58
2022/06/23 12:00:17;;;;;;;;;6.00;6.00;;;;;30.23;42.15;98458.28;4820264;29;46633;-58
2022/06/23 12:03:16;;;;;;;;;6.40;4.60;;;;;30.35;42.05;98450.38;4824654;29;45457;-58
2022/06/23 12:05:50;;;;;;;;;1.80;1.00;;;;;30.47;41.68;98448.75;4824575;29;45484;-58
2022/06/23 12:08:18;;;;;;;;;8.50;6.00;;;;;30.51;40.66;98453.56;4824474;29;45498;-60
2022/06/23 12:10:44;;;;;;;;;8.60;7.80;;;;;30.58;42.21;98463.66;4823945;29;45441;-60
2022/06/23 12:13:09;;;;;;;;;12.75;6.75;;;;;30.59;44.30;98465.34;4823860;29;45732;-60
2022/06/23 12:15:45;;;;;;;;;6.25;5.25;;;;;30.67;40.97;98460.53;4824158;29;45458;-60
2022/06/23 12:18:15;;;;;;;;;8.00;6.00;;;;;30.73;41.56;98448.84;4822959;29;45455;-60
2022/06/23 12:21:01;;;;;;;;;9.00;7.00;;;;;30.87;41.56;98455.97;4807079;29;46707;-61
2022/06/23 12:23:42;;;;;;;;;11.20;6.20;;;;;30.83;38.93;98437.56;4823862;29;45519;-60
2022/06/23 12:26:27;;;;;;;;;8.50;7.00;;;;;30.74;41.17;98420.56;4824047;29;45549;-60
2022/06/23 12:29:06;;;;;;;;;8.75;6.25;;;;;30.69;42.12;98427.69;4824576;29;45707;-60